createdAt,value
2019-05-19T00:00:37.666Z,14.10
2019-05-19T00:03:11.342Z,14.20
2019-05-19T00:05:45.798Z,14.20
2019-05-19T00:08:19.427Z,14.30
2019-05-19T00:10:53.989Z,14.30
2019-05-19T00:13:28.479Z,14.40
2019-05-19T00:16:02.211Z,14.40
2019-05-19T00:18:35.811Z,14.40
2019-05-19T00:21:10.187Z,14.30
2019-05-19T00:23:43.837Z,14.30
2019-05-19T00:26:17.401Z,14.30
2019-05-19T00:28:51.221Z,14.30
2019-05-19T00:31:25.712Z,14.30
2019-05-19T00:33:59.396Z,14.30
2019-05-19T00:36:32.896Z,14.20
2019-05-19T00:39:07.213Z,14.10
2019-05-19T00:41:41.659Z,14.10
2019-05-19T00:44:15.391Z,14.10
2019-05-19T00:46:49.098Z,14.10
2019-05-19T00:49:22.643Z,14.00
2019-05-19T00:51:56.170Z,14.00
2019-05-19T00:54:29.990Z,14.00
2019-05-19T00:57:03.599Z,13.90
2019-05-19T00:59:37.189Z,13.90
2019-05-19T01:02:10.805Z,13.90
2019-05-19T01:04:45.202Z,13.90
2019-05-19T01:07:19.024Z,13.90
2019-05-19T01:09:52.747Z,13.80
2019-05-19T01:12:26.522Z,13.80
2019-05-19T01:15:00.143Z,13.80
2019-05-19T01:17:33.748Z,13.80
2019-05-19T01:20:07.324Z,13.90
2019-05-19T01:22:40.965Z,14.00
2019-05-19T01:25:14.647Z,14.10
2019-05-19T01:27:48.230Z,14.10
2019-05-19T01:30:21.919Z,14.20
2019-05-19T01:32:55.531Z,14.10
2019-05-19T01:35:29.078Z,14.10
2019-05-19T01:38:02.632Z,14.00
2019-05-19T01:40:36.220Z,14.00
2019-05-19T01:43:09.797Z,14.00
2019-05-19T01:45:44.151Z,14.00
2019-05-19T01:48:17.724Z,14.00
2019-05-19T01:50:51.342Z,14.10
2019-05-19T01:53:24.954Z,14.00
2019-05-19T01:55:58.527Z,14.00
2019-05-19T01:58:32.159Z,14.00
2019-05-19T02:01:06.478Z,13.90
2019-05-19T02:03:40.783Z,13.90
2019-05-19T02:06:14.547Z,14.00
2019-05-19T02:08:48.907Z,13.90
2019-05-19T02:11:23.346Z,13.80
2019-05-19T02:13:56.932Z,13.80
2019-05-19T02:16:30.648Z,13.80
2019-05-19T02:19:05.068Z,13.80
2019-05-19T02:21:39.575Z,13.70
2019-05-19T02:24:13.315Z,13.70
2019-05-19T02:26:47.042Z,13.70
2019-05-19T02:29:20.596Z,13.70
2019-05-19T02:31:54.137Z,13.70
2019-05-19T02:34:28.612Z,13.70
2019-05-19T02:37:02.126Z,13.70
2019-05-19T02:39:35.833Z,13.70
2019-05-19T02:42:09.392Z,13.70
2019-05-19T02:44:43.737Z,13.70
2019-05-19T02:47:17.352Z,13.70
2019-05-19T02:49:50.954Z,13.70
2019-05-19T02:52:24.565Z,13.70
2019-05-19T02:54:58.169Z,13.70
2019-05-19T02:57:31.827Z,13.60
2019-05-19T03:00:06.193Z,13.60
2019-05-19T03:02:39.761Z,13.60
2019-05-19T03:05:13.529Z,13.60
2019-05-19T03:07:47.221Z,13.60
2019-05-19T03:10:20.894Z,13.60
2019-05-19T03:12:54.496Z,13.70
2019-05-19T03:15:28.054Z,13.80
2019-05-19T03:18:01.689Z,13.80
2019-05-19T03:20:35.466Z,13.80
2019-05-19T03:23:09.031Z,13.80
2019-05-19T03:25:44.217Z,13.80
2019-05-19T03:28:16.272Z,13.80
2019-05-19T03:31:01.651Z,13.70
2019-05-19T03:33:40.090Z,13.70
2019-05-19T03:36:13.791Z,13.70
2019-05-19T03:38:47.400Z,13.60
2019-05-19T03:41:20.907Z,13.60
2019-05-19T03:43:54.511Z,13.60
2019-05-19T03:46:28.177Z,13.50
2019-05-19T03:49:02.072Z,13.60
2019-05-19T03:51:35.825Z,13.60
2019-05-19T03:54:09.520Z,13.50
2019-05-19T03:56:43.848Z,13.50
2019-05-19T03:59:18.168Z,13.60
2019-05-19T04:01:51.971Z,13.60
2019-05-19T04:04:25.521Z,13.60
2019-05-19T04:06:59.098Z,13.60
2019-05-19T04:09:32.887Z,13.60
2019-05-19T04:12:06.463Z,13.60
2019-05-19T04:14:39.979Z,13.70
2019-05-19T04:17:13.707Z,13.80
2019-05-19T04:19:47.446Z,13.90
2019-05-19T04:22:21.009Z,13.90
2019-05-19T04:24:54.772Z,13.90
2019-05-19T04:27:28.505Z,14.00
2019-05-19T04:30:02.256Z,14.10
2019-05-19T04:32:36.610Z,14.00
2019-05-19T04:35:10.904Z,14.00
2019-05-19T04:37:45.363Z,14.10
2019-05-19T04:40:19.105Z,14.00
2019-05-19T04:42:52.873Z,14.10
2019-05-19T04:45:27.697Z,14.10
2019-05-19T04:48:02.146Z,14.30
2019-05-19T04:50:35.839Z,14.30
2019-05-19T04:53:09.385Z,14.40
2019-05-19T04:55:43.728Z,14.50
2019-05-19T04:58:18.536Z,14.50
2019-05-19T05:00:52.161Z,14.50
2019-05-19T05:03:25.787Z,14.60
2019-05-19T05:05:59.481Z,14.60
2019-05-19T05:08:33.140Z,14.60
2019-05-19T05:11:06.790Z,14.70
2019-05-19T05:13:40.608Z,14.80
2019-05-19T05:16:14.993Z,14.90
2019-05-19T05:18:48.528Z,14.90
2019-05-19T05:21:22.196Z,15.00
2019-05-19T05:23:55.808Z,15.00
2019-05-19T05:26:29.383Z,15.10
2019-05-19T05:29:03.003Z,15.10
2019-05-19T05:31:37.511Z,15.10
2019-05-19T05:34:11.262Z,15.10
2019-05-19T05:36:44.866Z,15.10
2019-05-19T05:39:19.206Z,15.10
2019-05-19T05:41:52.831Z,15.10
2019-05-19T05:44:26.443Z,15.10
2019-05-19T05:47:00.198Z,15.10
2019-05-19T05:49:33.965Z,15.10
2019-05-19T05:52:07.793Z,15.30
2019-05-19T05:54:41.392Z,15.40
2019-05-19T05:57:14.992Z,15.70
2019-05-19T05:59:48.818Z,15.90
2019-05-19T06:02:22.355Z,16.00
2019-05-19T06:04:55.942Z,15.90
2019-05-19T06:07:29.609Z,15.90
2019-05-19T06:10:03.268Z,15.90
2019-05-19T06:12:36.872Z,15.90
2019-05-19T06:15:10.700Z,16.00
2019-05-19T06:17:44.290Z,16.10
2019-05-19T06:20:18.744Z,16.10
2019-05-19T06:22:57.017Z,16.10
2019-05-19T06:25:27.481Z,16.00
2019-05-19T06:28:01.077Z,16.00
2019-05-19T06:30:34.627Z,16.00
2019-05-19T06:33:08.267Z,16.00
2019-05-19T06:35:41.790Z,16.10
2019-05-19T06:38:15.539Z,16.10
2019-05-19T06:40:49.723Z,16.30
2019-05-19T06:43:24.170Z,16.40
2019-05-19T06:45:57.728Z,16.60
2019-05-19T06:48:31.486Z,16.60
2019-05-19T06:51:05.192Z,16.60
2019-05-19T06:53:38.792Z,16.60
2019-05-19T06:56:12.383Z,16.70
2019-05-19T06:58:45.929Z,16.80
2019-05-19T07:01:19.438Z,16.80
2019-05-19T07:03:53.002Z,16.80
2019-05-19T07:06:26.676Z,16.60
2019-05-19T07:09:00.312Z,16.60
2019-05-19T07:11:33.895Z,16.60
2019-05-19T07:14:07.444Z,16.50
2019-05-19T07:16:41.211Z,16.60
2019-05-19T07:19:14.814Z,16.70
2019-05-19T07:21:49.386Z,16.70
2019-05-19T07:24:23.151Z,16.70
2019-05-19T07:26:58.961Z,16.80
2019-05-19T07:29:32.843Z,16.80
2019-05-19T07:32:06.344Z,17.00
2019-05-19T07:34:39.896Z,17.20
2019-05-19T07:37:13.552Z,17.30
2019-05-19T07:39:48.154Z,17.40
2019-05-19T07:42:21.898Z,17.40
2019-05-19T07:44:55.584Z,17.40
2019-05-19T07:47:29.149Z,17.40
2019-05-19T07:50:02.769Z,17.50
2019-05-19T07:52:36.422Z,17.60
2019-05-19T07:55:09.867Z,17.70
2019-05-19T07:57:44.503Z,17.70
2019-05-19T08:00:18.144Z,17.60
2019-05-19T08:02:52.893Z,17.90
2019-05-19T08:05:26.672Z,17.90
2019-05-19T08:08:01.271Z,17.80
2019-05-19T08:10:35.012Z,17.70
2019-05-19T08:13:08.738Z,17.70
2019-05-19T08:15:43.052Z,17.60
2019-05-19T08:18:16.656Z,17.60
2019-05-19T08:20:51.071Z,17.70
2019-05-19T08:23:25.674Z,18.00
2019-05-19T08:25:59.302Z,18.00
2019-05-19T08:28:32.927Z,18.40
2019-05-19T08:31:07.279Z,19.20
2019-05-19T08:33:40.881Z,19.20
2019-05-19T08:36:14.526Z,20.10
2019-05-19T08:38:48.260Z,20.80
2019-05-19T08:41:21.846Z,20.90
2019-05-19T08:43:55.614Z,21.50
2019-05-19T08:46:30.117Z,21.60
2019-05-19T08:49:03.765Z,21.70
2019-05-19T08:51:38.741Z,21.30
2019-05-19T08:54:15.937Z,22.70
2019-05-19T08:56:46.923Z,22.70
2019-05-19T08:59:20.643Z,23.90
2019-05-19T09:01:54.346Z,24.30
2019-05-19T09:04:27.926Z,24.20
2019-05-19T09:07:01.530Z,23.30
2019-05-19T09:09:35.325Z,22.60
2019-05-19T09:12:09.916Z,21.70
2019-05-19T09:14:44.224Z,21.70
2019-05-19T09:17:18.710Z,21.30
2019-05-19T09:19:53.514Z,21.20
2019-05-19T09:22:27.227Z,21.30
2019-05-19T09:25:00.877Z,21.80
2019-05-19T09:27:34.470Z,21.90
2019-05-19T09:30:08.256Z,22.40
2019-05-19T09:32:41.940Z,22.70
2019-05-19T09:35:15.464Z,22.70
2019-05-19T09:37:49.070Z,22.90
2019-05-19T09:40:26.498Z,22.20
2019-05-19T09:42:57.354Z,22.20
2019-05-19T09:45:31.875Z,21.30
2019-05-19T09:48:05.449Z,21.30
2019-05-19T09:50:40.022Z,21.20
2019-05-19T09:53:13.691Z,21.20
2019-05-19T09:55:48.327Z,21.00
2019-05-19T09:58:21.979Z,20.90
2019-05-19T10:00:55.587Z,21.20
2019-05-19T10:03:29.294Z,21.20
2019-05-19T10:06:03.070Z,20.90
2019-05-19T10:08:41.195Z,21.30
2019-05-19T10:11:25.268Z,21.30
2019-05-19T10:13:59.628Z,22.50
2019-05-19T10:16:33.160Z,22.50
2019-05-19T10:19:06.751Z,22.70
2019-05-19T10:21:40.629Z,22.80
2019-05-19T10:24:15.144Z,22.40
2019-05-19T10:26:48.928Z,22.40
2019-05-19T10:29:25.368Z,22.40
2019-05-19T10:31:59.149Z,22.40
2019-05-19T10:34:32.870Z,21.80
2019-05-19T10:37:06.691Z,21.50
2019-05-19T10:39:40.376Z,21.70
2019-05-19T10:42:14.236Z,22.40
2019-05-19T10:44:47.998Z,22.90
2019-05-19T10:47:21.648Z,23.30
2019-05-19T10:49:55.462Z,23.30
2019-05-19T10:52:29.159Z,23.20
2019-05-19T10:55:07.514Z,23.40
2019-05-19T10:57:44.972Z,23.90
2019-05-19T11:00:18.692Z,24.40
2019-05-19T11:02:52.457Z,25.20
2019-05-19T11:05:26.841Z,25.50
2019-05-19T11:08:00.456Z,25.40
2019-05-19T11:10:34.808Z,25.40
2019-05-19T11:13:08.343Z,25.20
2019-05-19T11:15:41.914Z,24.40
2019-05-19T11:18:15.675Z,24.90
2019-05-19T11:20:49.431Z,25.20
2019-05-19T11:23:24.417Z,25.10
2019-05-19T11:25:58.062Z,24.50
2019-05-19T11:28:31.943Z,24.00
2019-05-19T11:31:09.334Z,23.20
2019-05-19T11:33:43.443Z,22.40
2019-05-19T11:36:17.833Z,22.10
2019-05-19T11:38:51.571Z,22.10
2019-05-19T11:41:25.178Z,22.00
2019-05-19T11:43:58.943Z,22.10
2019-05-19T11:46:32.579Z,21.80
2019-05-19T11:49:06.220Z,22.00
2019-05-19T11:51:39.806Z,22.30
2019-05-19T11:54:13.371Z,22.60
2019-05-19T11:56:47.061Z,22.80
2019-05-19T11:59:20.848Z,22.70
2019-05-19T12:01:56.523Z,22.30
2019-05-19T12:04:30.354Z,22.30
2019-05-19T12:07:04.850Z,22.70
2019-05-19T12:09:38.499Z,22.60
2019-05-19T12:12:12.187Z,22.50
2019-05-19T12:14:45.765Z,22.40
2019-05-19T12:17:19.585Z,22.30
2019-05-19T12:19:55.240Z,22.20
2019-05-19T12:22:28.867Z,22.20
2019-05-19T12:25:03.810Z,22.30
2019-05-19T12:27:38.344Z,22.40
2019-05-19T12:30:12.073Z,22.50
2019-05-19T12:32:45.761Z,22.50
2019-05-19T12:35:19.501Z,22.60
2019-05-19T12:37:53.086Z,22.50
2019-05-19T12:40:31.066Z,22.40
2019-05-19T12:43:04.707Z,22.60
2019-05-19T12:45:38.552Z,23.00
2019-05-19T12:48:13.011Z,23.10
2019-05-19T12:50:46.708Z,23.00
2019-05-19T12:53:20.306Z,22.80
2019-05-19T12:55:54.310Z,22.60
2019-05-19T12:58:28.116Z,22.80
2019-05-19T13:01:05.033Z,23.00
2019-05-19T13:03:38.815Z,23.00
2019-05-19T13:06:13.198Z,23.20
2019-05-19T13:08:46.939Z,23.30
2019-05-19T13:11:20.598Z,23.20
2019-05-19T13:13:54.215Z,23.30
2019-05-19T13:16:28.254Z,23.10
2019-05-19T13:19:03.333Z,23.00
2019-05-19T13:21:37.416Z,22.90
2019-05-19T13:24:12.278Z,22.80
2019-05-19T13:26:56.091Z,22.70
2019-05-19T13:29:19.837Z,22.70
2019-05-19T13:31:54.273Z,22.80
2019-05-19T13:34:31.729Z,22.90
2019-05-19T13:37:05.476Z,22.70
2019-05-19T13:39:39.145Z,22.40
2019-05-19T13:42:15.351Z,22.90
2019-05-19T13:44:49.372Z,22.90
2019-05-19T13:47:23.151Z,23.10
2019-05-19T13:49:57.018Z,23.00
2019-05-19T13:52:32.040Z,23.10
2019-05-19T13:55:07.415Z,23.00
2019-05-19T13:57:41.902Z,23.20
2019-05-19T14:00:17.160Z,23.10
2019-05-19T14:02:58.967Z,22.90
2019-05-19T14:05:34.189Z,22.80
2019-05-19T14:08:12.255Z,22.70
2019-05-19T14:10:47.329Z,22.60
2019-05-19T14:13:32.927Z,22.60
2019-05-19T14:16:08.255Z,22.50
2019-05-19T14:18:42.992Z,22.60
2019-05-19T14:21:19.373Z,22.60
2019-05-19T14:23:57.589Z,22.40
2019-05-19T14:26:34.956Z,22.20
2019-05-19T14:29:10.832Z,22.20
2019-05-19T14:31:48.993Z,22.30
2019-05-19T14:34:24.185Z,22.30
2019-05-19T14:37:01.543Z,22.20
2019-05-19T14:39:40.964Z,22.30
2019-05-19T14:42:15.240Z,22.40
2019-05-19T14:44:54.643Z,22.30
2019-05-19T14:47:30.519Z,22.10
2019-05-19T14:50:05.949Z,22.20
2019-05-19T14:52:42.560Z,22.30
2019-05-19T14:55:16.919Z,22.50
2019-05-19T14:57:50.707Z,22.60
2019-05-19T15:00:24.537Z,22.60
2019-05-19T15:02:58.231Z,22.70
2019-05-19T15:05:31.952Z,22.80
2019-05-19T15:08:05.472Z,22.90
2019-05-19T15:10:40.437Z,22.70
2019-05-19T15:13:14.025Z,22.70
2019-05-19T15:15:47.787Z,22.70
2019-05-19T15:18:22.167Z,22.70
2019-05-19T15:20:56.175Z,22.70
2019-05-19T15:23:30.562Z,22.80
2019-05-19T15:26:04.315Z,22.80
2019-05-19T15:28:38.808Z,23.10
2019-05-19T15:31:12.575Z,23.00
2019-05-19T15:33:47.131Z,23.40
2019-05-19T15:36:20.754Z,23.50
2019-05-19T15:38:54.490Z,23.80
2019-05-19T15:41:28.171Z,23.80
2019-05-19T15:44:01.976Z,23.80
2019-05-19T15:46:36.560Z,23.50
2019-05-19T15:49:10.196Z,23.50
2019-05-19T15:51:58.990Z,23.50
2019-05-19T15:54:17.485Z,23.50
2019-05-19T15:56:51.141Z,23.50
2019-05-19T15:59:25.823Z,23.40
2019-05-19T16:02:00.337Z,23.50
2019-05-19T16:04:34.095Z,23.50
2019-05-19T16:07:08.066Z,23.40
2019-05-19T16:09:41.958Z,23.20
2019-05-19T16:12:15.658Z,22.90
2019-05-19T16:14:49.411Z,22.70
2019-05-19T16:17:23.014Z,22.60
2019-05-19T16:19:57.613Z,22.40
2019-05-19T16:22:31.301Z,22.30
2019-05-19T16:25:06.127Z,22.10
2019-05-19T16:27:39.811Z,22.00
2019-05-19T16:30:14.917Z,21.90
2019-05-19T16:32:49.614Z,21.60
2019-05-19T16:35:25.141Z,21.40
2019-05-19T16:38:01.682Z,21.30
2019-05-19T16:40:36.058Z,21.20
2019-05-19T16:43:10.038Z,21.20
2019-05-19T16:45:44.280Z,21.20
2019-05-19T16:48:18.771Z,21.00
2019-05-19T16:50:53.707Z,21.00
2019-05-19T16:53:28.132Z,20.70
2019-05-19T16:56:02.664Z,20.30
2019-05-19T16:58:45.297Z,20.30
2019-05-19T17:01:14.952Z,19.80
2019-05-19T17:03:50.626Z,19.80
2019-05-19T17:06:25.300Z,19.70
2019-05-19T17:09:05.388Z,19.40
2019-05-19T17:11:39.922Z,19.30
2019-05-19T17:14:16.100Z,19.00
2019-05-19T17:16:49.827Z,19.00
2019-05-19T17:19:24.154Z,19.10
2019-05-19T17:22:02.638Z,19.00
2019-05-19T17:24:36.279Z,19.00
2019-05-19T17:27:10.282Z,19.00
2019-05-19T17:29:45.129Z,19.10
2019-05-19T17:32:18.924Z,19.00
2019-05-19T17:34:54.064Z,19.00
2019-05-19T17:37:27.650Z,19.00
2019-05-19T17:40:01.457Z,19.00
2019-05-19T17:42:37.325Z,18.90
2019-05-19T17:45:11.250Z,18.90
2019-05-19T17:47:45.510Z,18.90
2019-05-19T17:50:34.715Z,18.90
2019-05-19T17:53:08.407Z,19.00
2019-05-19T17:55:42.883Z,19.00
2019-05-19T17:58:16.682Z,19.00
2019-05-19T18:00:50.917Z,18.90
2019-05-19T18:03:24.808Z,18.90
2019-05-19T18:05:58.437Z,18.90
2019-05-19T18:08:33.628Z,18.80
2019-05-19T18:11:07.307Z,18.70
2019-05-19T18:13:41.005Z,18.80
2019-05-19T18:16:15.767Z,18.70
2019-05-19T18:18:49.380Z,18.70
2019-05-19T18:21:22.957Z,18.70
2019-05-19T18:23:56.803Z,18.60
2019-05-19T18:26:30.319Z,18.60
2019-05-19T18:29:04.510Z,18.50
2019-05-19T18:31:38.254Z,18.40
2019-05-19T18:34:12.057Z,18.40
2019-05-19T18:36:47.607Z,18.40
2019-05-19T18:39:21.346Z,18.30
2019-05-19T18:41:55.184Z,18.30
2019-05-19T18:44:29.286Z,18.30
2019-05-19T18:47:03.585Z,18.30
2019-05-19T18:49:37.338Z,18.30
2019-05-19T18:52:11.799Z,18.20
2019-05-19T18:54:45.954Z,18.20
2019-05-19T18:57:20.765Z,18.20
2019-05-19T18:59:54.512Z,18.20
2019-05-19T19:02:29.892Z,18.20
2019-05-19T19:05:04.376Z,18.10
2019-05-19T19:07:44.732Z,18.00
2019-05-19T19:10:21.366Z,18.10
2019-05-19T19:15:37.774Z,18.10
2019-05-19T19:18:12.292Z,18.10
2019-05-19T19:20:47.631Z,18.20
2019-05-19T19:23:21.524Z,18.20
2019-05-19T19:25:56.841Z,18.20
2019-05-19T19:28:30.763Z,18.30
2019-05-19T19:31:04.523Z,18.30
2019-05-19T19:33:38.352Z,18.10
2019-05-19T19:36:17.830Z,18.00
2019-05-19T19:38:52.202Z,18.00
2019-05-19T19:41:26.814Z,18.00
2019-05-19T19:44:01.354Z,18.00
2019-05-19T19:46:35.979Z,18.00
2019-05-19T19:49:10.403Z,17.80
2019-05-19T19:51:44.219Z,17.80
2019-05-19T19:54:17.793Z,17.80
2019-05-19T19:56:51.645Z,17.70
2019-05-19T19:59:25.363Z,17.70
2019-05-19T20:01:58.933Z,17.70
2019-05-19T20:04:33.422Z,17.80
2019-05-19T20:07:07.223Z,17.70
2019-05-19T20:09:41.538Z,17.80
2019-05-19T20:12:15.137Z,17.80
2019-05-19T20:14:48.898Z,17.80
2019-05-19T20:17:22.632Z,17.80
2019-05-19T20:19:56.153Z,17.70
2019-05-19T20:22:29.658Z,17.40
2019-05-19T20:25:03.308Z,17.10
2019-05-19T20:27:36.836Z,17.10
2019-05-19T20:30:10.385Z,17.10
2019-05-19T20:32:44.919Z,17.10
2019-05-19T20:35:19.316Z,17.10
2019-05-19T20:37:53.146Z,17.10
2019-05-19T20:40:27.647Z,16.90
2019-05-19T20:43:01.358Z,16.80
2019-05-19T20:45:34.973Z,16.70
2019-05-19T20:48:08.647Z,16.70
2019-05-19T20:50:42.239Z,16.70
2019-05-19T20:53:15.823Z,16.20
2019-05-19T20:55:49.435Z,15.60
2019-05-19T20:58:22.959Z,15.30
2019-05-19T21:00:56.649Z,15.00
2019-05-19T21:03:31.168Z,14.70
2019-05-19T21:06:04.884Z,14.40
2019-05-19T21:08:38.547Z,13.50
2019-05-19T21:11:12.159Z,13.50
2019-05-19T21:13:45.880Z,13.30
2019-05-19T21:16:19.488Z,13.00
2019-05-19T21:18:53.223Z,13.20
2019-05-19T21:21:27.023Z,13.10
2019-05-19T21:24:00.636Z,13.10
2019-05-19T21:26:34.403Z,13.10
2019-05-19T21:29:08.027Z,13.30
2019-05-19T21:31:41.867Z,13.30
2019-05-19T21:34:16.326Z,13.60
2019-05-19T21:36:50.139Z,13.60
2019-05-19T21:39:24.454Z,13.80
2019-05-19T21:41:58.428Z,13.80
2019-05-19T21:44:32.371Z,14.00
2019-05-19T21:47:06.025Z,14.00
2019-05-19T21:49:39.689Z,14.00
2019-05-19T21:52:13.283Z,14.10
2019-05-19T21:54:47.623Z,14.50
2019-05-19T21:57:21.196Z,14.40
2019-05-19T21:59:54.782Z,14.50
2019-05-19T22:02:28.565Z,14.60
2019-05-19T22:05:02.363Z,14.60
2019-05-19T22:07:50.801Z,14.50
2019-05-19T22:10:24.395Z,14.40
2019-05-19T22:12:58.023Z,14.30
2019-05-19T22:15:31.660Z,14.10
2019-05-19T22:18:05.506Z,14.00
2019-05-19T22:20:38.969Z,13.90
2019-05-19T22:23:12.748Z,13.80
2019-05-19T22:25:46.378Z,13.80
2019-05-19T22:28:19.935Z,13.80
2019-05-19T22:30:53.573Z,13.70
2019-05-19T22:33:27.406Z,13.70
2019-05-19T22:36:01.003Z,13.80
2019-05-19T22:38:35.306Z,13.70
2019-05-19T22:41:08.996Z,13.70
2019-05-19T22:43:42.593Z,13.60
2019-05-19T22:46:16.107Z,13.60
2019-05-19T22:48:50.394Z,13.50
2019-05-19T22:51:24.148Z,13.50
2019-05-19T22:53:59.290Z,13.40
2019-05-19T22:56:32.996Z,13.40
2019-05-19T22:59:18.854Z,13.50
2019-05-19T23:01:51.416Z,13.40
2019-05-19T23:04:14.104Z,13.50
2019-05-19T23:06:47.809Z,13.50
2019-05-19T23:09:21.566Z,13.40
2019-05-19T23:11:55.394Z,13.40
2019-05-19T23:14:28.968Z,13.50
2019-05-19T23:17:03.280Z,13.50
2019-05-19T23:19:37.664Z,13.50
2019-05-19T23:22:11.351Z,13.50
2019-05-19T23:24:45.034Z,13.40
2019-05-19T23:27:18.651Z,13.50
2019-05-19T23:29:52.243Z,13.50
2019-05-19T23:32:26.665Z,13.40
2019-05-19T23:35:00.475Z,13.50
2019-05-19T23:37:34.044Z,13.60
2019-05-19T23:40:07.594Z,13.70
2019-05-19T23:42:41.182Z,13.70
2019-05-19T23:45:14.971Z,13.70
2019-05-19T23:47:48.587Z,13.70
2019-05-19T23:50:22.172Z,13.70
2019-05-19T23:52:55.688Z,13.60
2019-05-19T23:55:30.109Z,13.40
2019-05-19T23:58:04.638Z,13.40
